createdAt,value
2018-06-01T18:10:47.157Z,23.40
2018-06-01T18:13:14.763Z,23.30
2018-06-01T18:15:42.538Z,23.30
2018-06-01T18:18:10.185Z,23.40
2018-06-01T18:20:37.821Z,23.50
2018-06-01T18:23:06.193Z,23.70
2018-06-01T18:25:34.542Z,23.60
2018-06-01T18:28:02.138Z,23.60
2018-06-01T18:30:30.486Z,23.60
2018-06-01T18:32:58.103Z,23.50
2018-06-01T18:35:25.668Z,23.50
2018-06-01T18:37:53.257Z,23.40
2018-06-01T18:40:20.828Z,23.40
2018-06-01T18:42:48.426Z,23.20
2018-06-01T18:45:16.012Z,23.20
2018-06-01T18:47:43.649Z,23.20
2018-06-01T18:50:11.226Z,23.10
2018-06-01T18:52:38.790Z,23.00
2018-06-01T18:55:06.401Z,22.90
2018-06-01T18:57:33.981Z,22.80
2018-06-01T19:00:02.445Z,22.80
2018-06-01T19:02:30.793Z,22.80
2018-06-01T19:04:58.393Z,22.70
2018-06-01T19:07:26.750Z,22.80
2018-06-01T19:09:54.425Z,22.80
2018-06-01T19:12:22.001Z,22.60
2018-06-01T19:14:50.388Z,22.30
2018-06-01T19:17:18.742Z,22.20
2018-06-01T19:19:46.355Z,22.20
2018-06-01T19:22:13.979Z,22.00
2018-06-01T19:24:42.461Z,21.70
2018-06-01T19:27:10.828Z,21.60
2018-06-01T19:29:39.213Z,21.60
2018-06-01T19:32:06.878Z,21.60
2018-06-01T19:34:34.510Z,21.50
2018-06-01T19:37:02.968Z,21.80
2018-06-01T19:39:30.563Z,21.80
2018-06-01T19:41:58.147Z,21.80
2018-06-01T19:44:26.546Z,21.70
2018-06-01T19:46:54.177Z,21.70
2018-06-01T19:49:21.896Z,21.70
2018-06-01T19:51:49.492Z,21.90
2018-06-01T19:54:17.145Z,21.90
2018-06-01T19:56:44.725Z,21.80
2018-06-01T19:59:12.349Z,21.90
2018-06-01T20:01:40.002Z,22.00
2018-06-01T20:04:07.714Z,22.10
2018-06-01T20:06:35.303Z,22.20
2018-06-01T20:09:02.905Z,22.30
2018-06-01T20:11:30.520Z,22.40
2018-06-01T20:13:58.107Z,22.30
2018-06-01T20:16:25.828Z,22.30
2018-06-01T20:18:54.200Z,22.30
2018-06-01T20:21:22.562Z,22.30
2018-06-01T20:23:50.222Z,22.30
2018-06-01T20:26:17.828Z,22.40
2018-06-01T20:28:45.462Z,22.40
2018-06-01T20:31:13.927Z,22.40
2018-06-01T20:33:41.613Z,22.40
2018-06-01T20:36:09.987Z,22.30
2018-06-01T20:38:38.350Z,22.00
2018-06-01T20:41:06.725Z,21.80
2018-06-01T20:43:34.344Z,21.80
2018-06-01T20:46:01.994Z,21.80
2018-06-01T20:48:29.769Z,21.80
2018-06-01T20:50:57.382Z,21.70
2018-06-01T20:53:25.740Z,21.90
2018-06-01T20:55:53.357Z,21.90
2018-06-01T20:58:20.942Z,22.10
2018-06-01T21:00:48.550Z,22.00
2018-06-01T21:03:16.900Z,22.00
2018-06-01T21:05:44.500Z,22.00
2018-06-01T21:08:12.182Z,22.10
2018-06-01T21:10:39.883Z,22.10
2018-06-01T21:13:08.264Z,22.20
2018-06-01T21:15:39.373Z,22.20
2018-06-01T21:18:06.954Z,22.10
2018-06-01T21:20:34.543Z,22.00
2018-06-01T21:23:02.114Z,22.10
2018-06-01T21:25:30.494Z,21.70
2018-06-01T21:27:58.824Z,21.50
2018-06-01T21:30:26.386Z,21.40
2018-06-01T21:32:54.000Z,21.50
2018-06-01T21:35:21.560Z,21.60
2018-06-01T21:37:49.164Z,21.70
2018-06-01T21:40:16.722Z,21.80
2018-06-01T21:42:44.305Z,21.80
2018-06-01T21:45:11.881Z,22.00
2018-06-01T21:47:40.230Z,21.90
2018-06-01T21:50:07.795Z,21.90
2018-06-01T21:52:35.381Z,21.80
2018-06-01T21:55:03.696Z,21.70
2018-06-01T21:57:31.259Z,21.70
2018-06-01T21:59:58.807Z,21.70
2018-06-01T22:02:26.399Z,21.60
2018-06-01T22:04:53.952Z,21.60
2018-06-01T22:07:21.548Z,21.60
2018-06-01T22:09:49.110Z,21.70
2018-06-01T22:12:17.454Z,21.90
2018-06-01T22:14:45.039Z,21.90
2018-06-01T22:17:12.626Z,21.80
2018-06-01T22:19:40.201Z,21.70
2018-06-01T22:22:07.783Z,21.60
2018-06-01T22:24:35.341Z,21.50
2018-06-01T22:27:02.967Z,21.50
2018-06-01T22:29:30.542Z,21.30
2018-06-01T22:31:58.137Z,21.10
2018-06-01T22:34:26.458Z,21.00
2018-06-01T22:36:54.811Z,20.90
2018-06-01T22:39:22.366Z,20.90
2018-06-01T22:41:49.959Z,21.00
2018-06-01T22:44:18.293Z,21.10
2018-06-01T22:46:45.866Z,21.00
2018-06-01T22:49:13.461Z,21.00
2018-06-01T22:51:41.054Z,21.10
2018-06-01T22:54:08.663Z,21.10
2018-06-01T22:56:36.989Z,21.10
2018-06-01T22:59:04.558Z,21.10
2018-06-01T23:01:32.129Z,21.10
2018-06-01T23:03:59.722Z,21.00
2018-06-01T23:06:28.077Z,21.10
2018-06-01T23:08:55.681Z,21.10
2018-06-01T23:11:23.279Z,21.10
2018-06-01T23:13:50.983Z,21.10
2018-06-01T23:16:19.388Z,21.10
2018-06-01T23:18:46.978Z,21.10
2018-06-01T23:21:14.542Z,21.10
2018-06-01T23:23:42.132Z,21.10
2018-06-01T23:26:09.683Z,21.20
2018-06-01T23:28:37.260Z,21.20
2018-06-01T23:31:05.580Z,21.10
2018-06-01T23:33:33.173Z,21.10
2018-06-01T23:36:00.741Z,21.10
2018-06-01T23:38:28.308Z,21.00
2018-06-01T23:40:55.869Z,21.00
2018-06-01T23:43:23.466Z,21.00
2018-06-01T23:45:51.037Z,20.90
2018-06-01T23:48:18.655Z,20.90
2018-06-01T23:50:47.002Z,20.90
2018-06-01T23:53:14.583Z,20.90
2018-06-01T23:55:42.165Z,20.90
2018-06-01T23:58:10.521Z,20.90
